South Orleans, Massachusetts
Current Conditions -  °F | °C
As of 8:52 AM on Saturday 25 Oct 2014 (Local Time) from KCQX Reporting Station
Clear Clear  
Wind Chill: 50°   Ceiling: Unl
Heat Index: 50°   Visibility: 10mi
Dew Point: 44°   Wind: 5mph
Humidity: 80%   Direction: NA
Pressure: 29.77"   Gusts: NA
Location:  41.75°N, 69.99°W
Report Text: KCQX 251252Z AUTO VRB04KT 10SM CLR 10/07 A2977 RMK AO2 SLP081 T01000067
Loading
Personal Weather Stations






























Interactive Weather Map
Tropical Storm Tracking
New forecast layout! Learn more

10-Day Weather Forecast

Advertisements
Track Severe Weather on mobile